Time;durP1;ratioP1;P1;durP2;ratioP2;P2;SDS_P1;SDS_P2;PMS_P1;PMS_P2;Temp;Humidity;BMP_temperature;BMP_pressure;BME280_temperature;BME280_humidity;BME280_pressure;Samples;Min_cycle;Max_cycle;Signal;HPM_P1;HPM_P2
2024/01/28 00:00:58;;;;;;;11.32;4.95;;;0.30;99.90;;;-0.68;100.00;98873.28;5049632;28;20032;-38
2024/01/28 00:03:23;;;;;;;9.52;5.18;;;0.30;99.90;;;-0.73;100.00;98867.09;5046536;28;20401;-38
2024/01/28 00:05:51;;;;;;;9.73;5.07;;;0.20;99.90;;;-0.82;100.00;98865.97;5048608;28;20025;-38
2024/01/28 00:08:17;;;;;;;10.68;5.80;;;0.20;99.90;;;-0.88;100.00;98858.03;5042104;28;20082;-38
2024/01/28 00:10:43;;;;;;;11.02;5.15;;;0.10;99.90;;;-0.93;100.00;98869.03;5049318;28;20032;-39
2024/01/28 00:13:08;;;;;;;13.40;5.30;;;0.00;99.90;;;-1.06;100.00;98850.53;5042607;28;20516;-38
2024/01/28 00:15:34;;;;;;;13.55;5.90;;;0.00;99.90;;;-1.08;100.00;98851.31;5049609;28;20123;-38
2024/01/28 00:18:00;;;;;;;14.43;5.85;;;-0.10;99.90;;;-1.12;100.00;98858.09;5042660;28;20041;-38
2024/01/28 00:20:25;;;;;;;10.80;5.78;;;-0.10;99.90;;;-1.13;100.00;98852.88;5050852;28;20040;-38
2024/01/28 00:22:51;;;;;;;12.20;5.70;;;-0.20;99.90;;;-1.20;100.00;98852.66;5050961;28;20032;-38
2024/01/28 00:25:17;;;;;;;11.63;5.13;;;-0.20;99.90;;;-1.24;100.00;98852.50;5055367;22;20509;-36
2024/01/28 00:27:42;;;;;;;11.35;5.72;;;-0.30;99.90;;;-1.28;100.00;98848.06;5029203;28;20067;-36
2024/01/28 00:30:09;;;;;;;10.05;5.93;;;-0.30;99.90;;;-1.33;100.00;98842.72;5017653;28;20170;-35
2024/01/28 00:32:34;;;;;;;13.50;6.45;;;-0.30;99.90;;;-1.33;100.00;98844.44;5024450;28;20029;-36
2024/01/28 00:35:00;;;;;;;13.00;6.00;;;-0.40;99.90;;;-1.31;100.00;98855.72;5022558;28;20094;-35
2024/01/28 00:37:26;;;;;;;10.65;6.30;;;-0.30;99.90;;;-1.36;100.00;98843.50;5025092;28;20132;-37
2024/01/28 00:39:51;;;;;;;11.85;6.28;;;-0.40;99.90;;;-1.38;100.00;98844.31;5027707;28;20037;-36
2024/01/28 00:42:18;;;;;;;14.45;6.05;;;-0.40;99.90;;;-1.43;100.00;98840.69;5031319;28;20350;-36
2024/01/28 00:44:43;;;;;;;12.70;6.32;;;-0.40;99.90;;;-1.45;100.00;98843.22;5027003;28;20021;-36
2024/01/28 00:47:09;;;;;;;13.70;6.28;;;-0.40;99.90;;;-1.45;100.00;98834.56;5027563;28;20039;-35
2024/01/28 00:49:35;;;;;;;13.05;6.53;;;-0.50;99.90;;;-1.48;100.00;98826.69;5031174;28;20033;-36
2024/01/28 00:52:02;;;;;;;12.10;6.50;;;-0.50;99.90;;;-1.47;100.00;98828.44;5029499;28;20033;-36
2024/01/28 00:54:27;;;;;;;14.48;6.72;;;-0.50;99.90;;;-1.49;100.00;98825.84;5030431;28;20509;-37
2024/01/28 00:56:53;;;;;;;10.63;6.20;;;-0.50;99.90;;;-1.49;100.00;98825.84;5028026;28;20037;-37
2024/01/28 00:59:23;;;;;;;15.27;7.18;;;-0.50;99.90;;;-1.50;100.00;98820.59;5027230;28;20970;-37
2024/01/28 01:01:48;;;;;;;15.25;6.22;;;-0.60;99.90;;;-1.58;100.00;98815.16;5028010;28;20028;-36
2024/01/28 01:04:14;;;;;;;13.38;6.75;;;-0.60;99.90;;;-1.56;100.00;98816.09;5032722;28;20033;-36
2024/01/28 01:06:44;;;;;;;15.10;6.78;;;-0.60;99.90;;;-1.57;100.00;98812.63;5031963;28;20060;-37
2024/01/28 01:09:10;;;;;;;13.10;6.80;;;-0.60;99.90;;;-1.57;100.00;98817.78;5024040;28;20017;-36
2024/01/28 01:11:36;;;;;;;13.75;6.65;;;-0.60;99.90;;;-1.59;100.00;98808.22;5025603;28;20079;-37
2024/01/28 01:14:02;;;;;;;11.88;6.30;;;-0.60;99.90;;;-1.68;100.00;98792.41;5027648;28;20032;-37
2024/01/28 01:16:28;;;;;;;11.98;6.35;;;-0.60;99.90;;;-1.63;100.00;98807.25;5027739;28;20121;-35
2024/01/28 01:18:54;;;;;;;12.75;5.93;;;-0.60;99.90;;;-1.60;100.00;98801.28;5023755;28;20040;-35
2024/01/28 01:21:19;;;;;;;11.27;5.88;;;-0.60;99.90;;;-1.60;100.00;98796.09;5030072;28;20061;-36
2024/01/28 01:23:45;;;;;;;12.75;6.15;;;-0.60;99.90;;;-1.63;100.00;98790.84;5027918;28;20185;-36
2024/01/28 01:26:11;;;;;;;11.57;5.93;;;-0.60;99.90;;;-1.66;100.00;98793.31;5022415;28;20264;-36
2024/01/28 01:28:36;;;;;;;13.15;6.45;;;-0.70;99.90;;;-1.66;100.00;98795.91;5032649;28;20595;-36
2024/01/28 01:31:03;;;;;;;10.80;5.60;;;-0.70;99.90;;;-1.68;100.00;98800.16;5028209;28;20052;-36
2024/01/28 01:33:29;;;;;;;12.85;5.78;;;-0.70;99.90;;;-1.69;100.00;98806.16;5045419;28;20037;-36
2024/01/28 01:35:54;;;;;;;9.35;5.82;;;-0.70;99.90;;;-1.74;100.00;98799.13;5031580;28;20102;-36
2024/01/28 01:38:21;;;;;;;11.40;5.60;;;-0.70;99.90;;;-1.70;100.00;98802.69;5032420;28;20659;-36
2024/01/28 01:40:46;;;;;;;11.93;5.53;;;-0.70;99.90;;;-1.71;100.00;98794.88;5025833;28;20104;-36
2024/01/28 01:43:13;;;;;;;9.57;5.55;;;-0.70;99.90;;;-1.71;100.00;98784.53;5026975;28;20296;-36
2024/01/28 01:45:40;;;;;;;12.32;5.68;;;-0.70;99.90;;;-1.70;100.00;98784.59;5030740;28;20294;-36
2024/01/28 01:48:16;;;;;;;12.27;5.57;;;-0.70;99.90;;;-1.66;100.00;98785.56;5029335;28;20033;-36
2024/01/28 01:50:43;;;;;;;11.73;5.40;;;-0.70;99.90;;;-1.63;100.00;98790.84;5035172;28;20025;-37
2024/01/28 01:53:10;;;;;;;11.98;5.22;;;-0.70;99.90;;;-1.62;100.00;98779.66;5025906;28;20091;-36
2024/01/28 01:55:38;;;;;;;10.20;5.05;;;-0.60;99.90;;;-1.58;100.00;98781.50;5034043;28;22132;-36
2024/01/28 01:58:05;;;;;;;10.23;4.97;;;-0.60;99.90;;;-1.55;100.00;98768.69;5030141;28;20187;-35
2024/01/28 02:00:34;;;;;;;9.18;5.05;;;-0.60;99.90;;;-1.50;100.00;98771.44;5033624;28;20024;-35
2024/01/28 02:03:02;;;;;;;11.00;5.63;;;-0.50;99.90;;;-1.46;100.00;98774.16;5017937;28;20196;-35
2024/01/28 02:05:27;;;;;;;11.38;4.88;;;-0.50;99.90;;;-1.45;100.00;98775.94;5033809;28;20477;-36
2024/01/28 02:07:53;;;;;;;10.05;4.80;;;-0.50;99.90;;;-1.73;100.00;98724.97;5029589;28;20098;-36
2024/01/28 02:10:22;;;;;;;7.13;4.47;;;-0.50;99.90;;;-1.49;100.00;98779.25;5031115;28;20036;-36
2024/01/28 02:12:52;;;;;;;9.30;5.22;;;-0.50;99.90;;;-1.50;100.00;98780.06;5034329;28;20131;-36
2024/01/28 02:15:18;;;;;;;9.60;4.82;;;-0.50;99.90;;;-1.54;100.00;98784.25;5031955;28;20075;-36
2024/01/28 02:17:44;;;;;;;8.25;5.00;;;-0.50;99.90;;;-1.55;100.00;98777.31;5027659;28;20240;-36
2024/01/28 02:20:11;;;;;;;12.45;5.45;;;-0.50;99.90;;;-1.63;100.00;98773.59;5031177;28;20040;-36
2024/01/28 02:22:36;;;;;;;9.13;5.57;;;-0.60;99.90;;;-1.57;100.00;98780.69;5034267;28;20378;-36
2024/01/28 02:25:03;;;;;;;11.98;5.70;;;-0.60;99.90;;;-1.58;100.00;98784.09;5029951;28;20044;-36
2024/01/28 02:27:29;;;;;;;13.23;5.82;;;-0.60;99.90;;;-1.62;100.00;98780.53;5032718;28;20393;-36
2024/01/28 02:29:55;;;;;;;10.57;5.80;;;-0.60;99.90;;;-1.63;100.00;98767.56;5048222;28;20021;-36
2024/01/28 02:32:21;;;;;;;11.38;5.75;;;-0.60;99.90;;;-1.67;100.00;98764.00;5030848;28;20037;-36
2024/01/28 02:34:46;;;;;;;10.50;5.60;;;-0.70;99.90;;;-1.66;100.00;98757.09;5030601;28;20658;-36
2024/01/28 02:37:12;;;;;;;11.48;5.78;;;-0.70;99.90;;;-1.66;100.00;98759.69;5027501;28;20032;-36
2024/01/28 02:39:39;;;;;;;12.48;6.25;;;-0.70;99.90;;;-1.67;100.00;98753.66;5031490;28;20481;-36
2024/01/28 02:42:05;;;;;;;11.88;6.43;;;-0.70;99.90;;;-1.68;100.00;98758.78;5029331;28;20048;-36
2024/01/28 02:44:31;;;;;;;11.77;6.25;;;-0.70;99.90;;;-1.70;100.00;98744.91;5025211;28;20044;-36
2024/01/28 02:46:57;;;;;;;11.93;6.60;;;-0.70;99.90;;;-1.73;100.00;98741.38;5031700;28;20432;-36
2024/01/28 02:49:23;;;;;;;12.88;5.97;;;-0.80;99.90;;;-1.75;100.00;98745.63;5029404;28;20087;-36
2024/01/28 02:51:53;;;;;;;15.05;6.03;;;-0.80;99.90;;;-1.80;100.00;98736.81;5032591;28;20036;-36
2024/01/28 02:54:19;;;;;;;11.73;6.07;;;-0.80;99.90;;;-1.84;100.00;98732.38;5028594;28;20029;-36
2024/01/28 02:56:45;;;;;;;12.85;6.03;;;-0.80;99.90;;;-1.85;100.00;98742.66;5029187;28;20477;-36
2024/01/28 02:59:10;;;;;;;12.85;6.38;;;-0.90;99.90;;;-1.90;100.00;98737.34;5033556;28;20041;-36
2024/01/28 03:01:49;;;;;;;11.52;6.28;;;-0.90;99.90;;;-1.92;100.00;98734.72;5030751;28;20037;-36
2024/01/28 03:04:15;;;;;;;14.52;6.40;;;-0.90;99.90;;;-1.92;100.00;98733.81;5039090;28;20025;-36
2024/01/28 03:06:41;;;;;;;14.15;6.47;;;-0.90;99.90;;;-1.98;100.00;98729.31;5031857;28;20032;-36
2024/01/28 03:09:08;;;;;;;11.82;5.75;;;-0.90;99.90;;;-1.98;100.00;98736.19;5026839;28;20103;-35
2024/01/28 03:11:35;;;;;;;13.48;5.80;;;-0.90;99.90;;;-2.15;100.00;98714.97;5027169;28;20769;-35
2024/01/28 03:14:01;;;;;;;12.15;5.50;;;-0.90;99.90;;;-1.99;100.00;98743.09;5034169;28;20043;-35
2024/01/28 03:16:26;;;;;;;15.65;6.15;;;-0.90;99.90;;;-1.99;100.00;98742.19;5029488;28;20028;-35
2024/01/28 03:18:52;;;;;;;14.70;5.70;;;-1.00;99.90;;;-2.13;100.00;98724.50;5035068;28;20028;-35
2024/01/28 03:21:18;;;;;;;13.23;5.72;;;-1.00;99.90;;;-1.99;100.00;98737.00;5032216;28;21620;-35
2024/01/28 03:23:43;;;;;;;11.13;5.97;;;-1.00;99.90;;;-2.01;100.00;98739.59;5028136;28;20576;-36
2024/01/28 03:26:12;;;;;;;14.88;6.22;;;-1.00;99.90;;;-2.01;100.00;98744.75;5030848;28;20032;-35
2024/01/28 03:28:38;;;;;;;11.63;5.63;;;-1.00;99.90;;;-2.00;100.00;98740.44;5031486;28;20481;-35
2024/01/28 03:31:04;;;;;;;10.77;5.55;;;-1.00;99.90;;;-1.96;100.00;98743.16;5030956;28;20095;-36
2024/01/28 03:33:30;;;;;;;9.52;4.78;;;-1.00;99.90;;;-1.93;100.00;98739.84;5025882;28;20044;-36
2024/01/28 03:35:56;;;;;;;11.70;5.90;;;-1.00;99.90;;;-1.92;100.00;98738.97;5024659;28;20502;-36
2024/01/28 03:38:22;;;;;;;9.95;5.30;;;-0.90;99.90;;;-1.92;100.00;98742.47;5021193;28;20219;-36
2024/01/28 03:40:47;;;;;;;11.55;5.68;;;-0.90;99.90;;;-2.01;100.00;98723.16;5025968;28;20046;-36
2024/01/28 03:43:13;;;;;;;16.70;5.40;;;-0.90;99.90;;;-1.97;100.00;98727.63;5030761;28;20029;-35
2024/01/28 03:45:39;;;;;;;9.68;5.10;;;-0.90;99.90;;;-1.92;100.00;98728.63;5031728;28;20588;-35
2024/01/28 03:48:05;;;;;;;8.23;5.47;;;-0.90;99.90;;;-1.90;100.00;98729.59;5029598;28;20033;-36
2024/01/28 03:50:31;;;;;;;11.23;5.22;;;-0.90;99.90;;;-1.98;100.00;98718.97;5034918;28;20033;-36
2024/01/28 03:52:57;;;;;;;12.80;5.57;;;-0.90;99.90;;;-1.91;100.00;98730.41;5030826;28;20040;-35
2024/01/28 03:55:22;;;;;;;8.60;4.85;;;-0.90;99.90;;;-1.92;100.00;98733.81;5008944;28;20462;-36
2024/01/28 03:57:48;;;;;;;13.65;5.70;;;-0.90;99.90;;;-1.94;100.00;98731.19;5026446;28;20056;-36
2024/01/28 04:00:15;;;;;;;12.63;5.65;;;-0.90;99.90;;;-2.07;100.00;98712.63;5026265;28;20028;-36
2024/01/28 04:02:41;;;;;;;9.52;5.45;;;-1.00;99.90;;;-2.02;100.00;98732.63;5044374;28;20566;-36
2024/01/28 04:05:07;;;;;;;15.95;6.20;;;-1.00;99.90;;;-2.12;100.00;98715.94;5023707;28;20052;-35
2024/01/28 04:07:33;;;;;;;11.35;5.45;;;-1.00;99.90;;;-2.15;100.00;98718.41;5028095;28;20464;-36
2024/01/28 04:09:58;;;;;;;11.48;5.72;;;-1.00;99.90;;;-2.03;100.00;98730.84;5027911;28;20048;-36
2024/01/28 04:12:24;;;;;;;9.15;5.47;;;-1.00;99.90;;;-2.03;100.00;98727.41;5027130;28;20516;-36
2024/01/28 04:14:50;;;;;;;10.20;5.97;;;-1.00;99.90;;;-2.07;100.00;98726.41;5023154;28;20036;-36
2024/01/28 04:17:16;;;;;;;10.43;5.65;;;-1.00;99.90;;;-2.05;100.00;98723.91;5024865;28;20056;-36
2024/01/28 04:19:42;;;;;;;12.07;6.10;;;-1.00;99.90;;;-2.08;100.00;98718.59;5027747;28;20098;-36
2024/01/28 04:22:10;;;;;;;10.95;5.78;;;-1.00;99.90;;;-2.08;100.00;98719.50;5027258;28;20448;-36
2024/01/28 04:24:36;;;;;;;11.73;5.40;;;-1.10;99.90;;;-2.11;100.00;98719.41;5026786;28;20030;-36
2024/01/28 04:27:03;;;;;;;10.27;5.43;;;-1.10;99.90;;;-2.09;100.00;98725.50;5028102;28;20057;-36
2024/01/28 04:29:28;;;;;;;12.32;5.88;;;-1.00;99.90;;;-2.03;100.00;98717.94;5026006;28;20034;-36
2024/01/28 04:31:54;;;;;;;11.70;5.88;;;-1.00;99.90;;;-2.00;100.00;98719.75;5030109;28;20048;-36
2024/01/28 04:34:21;;;;;;;13.20;5.75;;;-0.90;99.90;;;-1.98;100.00;98723.28;5023491;28;20041;-35
2024/01/28 04:36:47;;;;;;;11.43;5.75;;;-0.90;99.90;;;-1.97;100.00;98725.06;5031495;28;20458;-35
2024/01/28 04:39:12;;;;;;;11.65;5.80;;;-0.90;99.90;;;-2.08;100.00;98708.28;5024176;28;20071;-36
2024/01/28 04:41:39;;;;;;;12.15;5.47;;;-0.90;99.90;;;-2.01;100.00;98718.91;5029609;28;20033;-36
2024/01/28 04:44:05;;;;;;;10.55;6.18;;;-0.90;99.90;;;-2.07;100.00;98712.63;5027521;28;20410;-36
2024/01/28 04:46:31;;;;;;;9.63;5.65;;;-1.00;99.90;;;-2.01;100.00;98724.06;5030471;28;20032;-36
2024/01/28 04:48:57;;;;;;;12.75;6.07;;;-1.00;99.90;;;-2.02;100.00;98726.59;5033130;28;20064;-36
2024/01/28 04:51:23;;;;;;;10.82;5.25;;;-1.00;99.90;;;-2.04;100.00;98723.94;5029045;28;20037;-36
2024/01/28 04:53:49;;;;;;;8.52;5.18;;;-1.00;99.90;;;-2.01;100.00;98738.69;5029801;28;20063;-36
2024/01/28 04:56:15;;;;;;;9.93;5.57;;;-1.00;99.90;;;-2.01;100.00;98729.22;5026158;28;20098;-35
2024/01/28 04:58:40;;;;;;;11.70;5.45;;;-1.10;99.90;;;-2.06;100.00;98720.44;5027585;28;20474;-36
2024/01/28 05:01:07;;;;;;;11.25;5.68;;;-1.00;99.90;;;-2.07;100.00;98713.50;5020673;28;20064;-36
2024/01/28 05:03:33;;;;;;;10.82;5.70;;;-1.00;99.90;;;-1.96;100.00;98726.78;5023110;28;20029;-36
2024/01/28 05:05:59;;;;;;;9.70;5.10;;;-1.00;99.90;;;-1.94;100.00;98720.84;5026335;28;20021;-36
2024/01/28 05:08:25;;;;;;;9.07;4.80;;;-1.00;99.90;;;-1.94;100.00;98722.53;5030741;28;20397;-36
2024/01/28 05:10:52;;;;;;;10.15;5.43;;;-0.90;99.90;;;-1.99;100.00;98718.91;5029003;28;20292;-35
2024/01/28 05:13:18;;;;;;;14.00;6.00;;;-0.90;99.90;;;-1.92;100.00;98739.88;5023524;28;20303;-35
2024/01/28 05:15:43;;;;;;;11.98;5.78;;;-1.00;99.90;;;-1.92;100.00;98738.97;5029724;28;20037;-35
2024/01/28 05:18:09;;;;;;;12.50;5.50;;;-0.90;99.90;;;-1.93;100.00;98739.84;5028164;28;20497;-35
2024/01/28 05:20:35;;;;;;;9.70;5.47;;;-0.90;99.90;;;-1.97;100.00;98730.22;5027205;28;20033;-35
2024/01/28 05:23:00;;;;;;;9.48;5.20;;;-1.00;99.90;;;-2.00;100.00;98735.28;5028540;28;20033;-35
2024/01/28 05:25:28;;;;;;;9.82;5.50;;;-1.00;99.90;;;-2.01;100.00;98729.22;5020389;28;20519;-35
2024/01/28 05:27:54;;;;;;;9.40;5.30;;;-1.00;99.90;;;-2.02;100.00;98730.06;5025703;28;20033;-35
2024/01/28 05:30:19;;;;;;;9.80;5.45;;;-1.00;99.90;;;-2.04;100.00;98733.44;5023246;28;20041;-35
2024/01/28 05:32:45;;;;;;;13.50;6.13;;;-1.10;99.90;;;-2.06;100.00;98720.44;5025679;28;20017;-36
2024/01/28 05:35:11;;;;;;;11.95;5.68;;;-1.10;99.90;;;-2.07;100.00;98726.41;5019629;28;20047;-36
2024/01/28 05:37:37;;;;;;;11.80;5.53;;;-1.10;99.90;;;-2.20;100.00;98714.78;5027907;28;20036;-36
2024/01/28 05:40:04;;;;;;;10.15;5.53;;;-1.10;99.90;;;-2.11;100.00;98733.19;5019372;28;20493;-36
2024/01/28 05:42:29;;;;;;;10.85;4.93;;;-1.10;99.90;;;-2.13;100.00;98719.34;5030985;28;20025;-36
2024/01/28 05:44:55;;;;;;;7.90;5.25;;;-1.20;99.90;;;-2.23;100.00;98711.22;5024337;28;20044;-36
2024/01/28 05:47:21;;;;;;;9.38;5.47;;;-1.20;99.90;;;-2.14;100.00;98730.50;5028893;28;20037;-35
2024/01/28 05:49:46;;;;;;;10.77;5.18;;;-1.20;99.90;;;-2.13;100.00;98728.81;5027475;28;20397;-36
2024/01/28 05:52:12;;;;;;;10.75;5.72;;;-1.10;99.90;;;-2.13;100.00;98729.69;5030188;28;20036;-35
2024/01/28 05:54:41;;;;;;;8.63;5.25;;;-1.10;99.90;;;-2.13;100.00;98731.41;5021938;28;20037;-36
2024/01/28 05:57:08;;;;;;;9.65;5.88;;;-1.10;99.90;;;-2.16;100.00;98724.41;5024743;28;20431;-36
2024/01/28 05:59:34;;;;;;;11.27;5.90;;;-1.20;99.90;;;-2.14;100.00;98725.31;5025951;28;20701;-36
2024/01/28 06:02:00;;;;;;;13.80;5.75;;;-1.10;99.90;;;-2.14;100.00;98730.50;5019266;28;20025;-35
2024/01/28 06:04:26;;;;;;;10.88;5.70;;;-1.10;99.90;;;-2.16;100.00;98728.69;5029882;28;20052;-36
2024/01/28 06:06:51;;;;;;;9.95;5.70;;;-1.10;99.90;;;-2.14;100.00;98733.06;5033909;28;20056;-36
2024/01/28 06:09:18;;;;;;;11.73;5.78;;;-1.20;99.90;;;-2.13;100.00;98739.16;5022821;28;20046;-36
2024/01/28 06:11:43;;;;;;;9.00;5.32;;;-1.10;99.90;;;-2.13;100.00;98733.97;5030094;28;20037;-35
2024/01/28 06:14:10;;;;;;;11.20;5.38;;;-1.10;99.90;;;-2.14;100.00;98733.06;5031996;28;20409;-34
2024/01/28 06:16:37;;;;;;;9.55;5.45;;;-1.20;99.90;;;-2.22;100.00;98713.84;5029327;28;20025;-35
2024/01/28 06:19:02;;;;;;;9.60;5.18;;;-1.10;99.90;;;-2.14;100.00;98725.31;5045558;28;20073;-35
2024/01/28 06:21:28;;;;;;;11.00;5.35;;;-1.10;99.90;;;-2.11;100.00;98721.97;5025318;28;20033;-35
2024/01/28 06:23:54;;;;;;;7.68;5.00;;;-1.10;99.90;;;-2.08;100.00;98721.19;5029575;28;20284;-35
2024/01/28 06:26:20;;;;;;;10.32;4.82;;;-1.10;99.90;;;-2.07;100.00;98728.13;5023822;28;20301;-35
2024/01/28 06:28:46;;;;;;;9.38;5.13;;;-1.10;99.90;;;-2.13;100.00;98714.16;5030414;28;20508;-35
2024/01/28 06:31:13;;;;;;;9.30;5.20;;;-1.10;99.90;;;-2.05;100.00;98724.75;5028067;28;20116;-35
2024/01/28 06:33:40;;;;;;;11.18;5.35;;;-1.10;99.90;;;-2.03;100.00;98720.53;5021156;28;20036;-35
2024/01/28 06:36:06;;;;;;;8.18;4.93;;;-1.00;99.90;;;-2.02;100.00;98726.59;5023087;28;20036;-35
2024/01/28 06:38:32;;;;;;;11.90;5.60;;;-1.00;99.90;;;-2.02;100.00;98734.34;5030074;28;20290;-35
2024/01/28 06:40:58;;;;;;;8.95;5.38;;;-1.00;99.90;;;-2.13;100.00;98721.06;5027034;28;20067;-35
2024/01/28 06:43:27;;;;;;;10.07;5.65;;;-1.00;99.90;;;-2.02;100.00;98724.88;5032877;28;20491;-35
2024/01/28 06:45:53;;;;;;;17.60;6.22;;;-1.00;99.90;;;-2.00;100.00;98728.38;5027784;28;20055;-35
2024/01/28 06:48:19;;;;;;;10.55;5.80;;;-0.90;99.90;;;-2.01;100.00;98724.06;5030679;28;20032;-35
2024/01/28 06:50:46;;;;;;;11.52;6.00;;;-1.00;99.90;;;-2.13;100.00;98703.81;5028800;28;20061;-35
2024/01/28 06:53:12;;;;;;;11.23;6.38;;;-1.00;99.90;;;-2.11;100.00;98706.47;5031726;28;20086;-35
2024/01/28 06:55:38;;;;;;;15.10;5.68;;;-1.00;99.90;;;-2.02;100.00;98716.25;5026247;28;20037;-35
2024/01/28 06:58:04;;;;;;;9.82;5.80;;;-1.00;99.90;;;-2.07;100.00;98710.91;5029242;28;20497;-35
2024/01/28 07:00:30;;;;;;;14.77;5.63;;;-1.00;99.90;;;-2.02;100.00;98718.84;5028069;28;20032;-35
2024/01/28 07:02:55;;;;;;;9.98;5.43;;;-1.00;99.90;;;-2.15;100.00;98714.97;5030208;28;20108;-36
2024/01/28 07:05:22;;;;;;;11.70;5.72;;;-1.00;99.90;;;-2.05;100.00;98731.66;5027693;28;20025;-36
2024/01/28 07:07:48;;;;;;;11.32;5.25;;;-1.00;99.90;;;-2.03;100.00;98737.75;5028698;28;20197;-36
2024/01/28 07:10:15;;;;;;;9.80;5.68;;;-1.00;99.90;;;-2.04;100.00;98739.47;5024301;28;20124;-36
2024/01/28 07:12:42;;;;;;;12.15;5.72;;;-1.00;99.90;;;-2.03;100.00;98742.91;5031714;28;20102;-35
2024/01/28 07:15:08;;;;;;;13.57;5.97;;;-1.00;99.90;;;-1.99;100.00;98737.00;5033106;28;20065;-36
2024/01/28 07:17:34;;;;;;;11.00;5.47;;;-1.00;99.90;;;-2.07;100.00;98720.38;5030216;28;20036;-35
2024/01/28 07:20:00;;;;;;;9.85;5.47;;;-0.90;99.90;;;-1.95;100.00;98738.91;5031218;28;20028;-35
2024/01/28 07:22:26;;;;;;;10.02;5.18;;;-0.90;99.90;;;-1.94;100.00;98731.19;5023619;28;20033;-35
2024/01/28 07:24:51;;;;;;;15.52;5.30;;;-0.90;99.90;;;-1.91;100.00;98730.41;5024481;28;20129;-35
2024/01/28 07:27:17;;;;;;;9.77;5.10;;;-0.90;99.90;;;-1.87;100.00;98733.97;5025597;28;20028;-36
2024/01/28 07:29:43;;;;;;;12.10;6.25;;;-0.80;99.90;;;-1.83;100.00;98726.38;5025270;28;20044;-36
2024/01/28 07:32:13;;;;;;;10.18;5.68;;;-0.80;99.90;;;-1.85;100.00;98715.09;5024602;28;20036;-36
2024/01/28 07:34:42;;;;;;;11.45;6.35;;;-0.80;99.90;;;-1.76;100.00;98728.34;5032118;28;20251;-36
2024/01/28 07:37:08;;;;;;;11.75;6.22;;;-0.70;99.90;;;-1.69;100.00;98728.53;5029859;28;20033;-36
2024/01/28 07:39:34;;;;;;;12.88;5.38;;;-0.70;99.90;;;-1.69;100.00;98731.13;5022451;28;20622;-35
2024/01/28 07:41:59;;;;;;;14.82;6.53;;;-0.60;99.90;;;-1.67;100.00;98735.53;5028448;28;20032;-35
2024/01/28 07:44:26;;;;;;;11.85;6.60;;;-0.60;99.90;;;-1.60;100.00;98729.75;5023964;28;20027;-36
2024/01/28 07:46:52;;;;;;;13.13;6.45;;;-0.60;99.90;;;-1.57;100.00;98728.94;5030258;28;20021;-35
2024/01/28 07:49:19;;;;;;;11.98;6.38;;;-0.50;99.90;;;-1.55;100.00;98720.38;5026183;28;20504;-35
2024/01/28 07:51:45;;;;;;;16.73;7.20;;;-0.50;99.90;;;-1.49;100.00;98722.31;5025784;28;20436;-36
2024/01/28 07:54:11;;;;;;;11.68;6.43;;;-0.40;99.90;;;-1.45;100.00;98716.41;5024939;28;20044;-36
2024/01/28 07:56:36;;;;;;;12.77;7.00;;;-0.40;99.90;;;-1.46;100.00;98711.19;5025917;28;20051;-36
2024/01/28 07:59:02;;;;;;;17.35;7.68;;;-0.40;99.90;;;-1.37;100.00;98722.69;5025214;28;20275;-36
2024/01/28 08:01:30;;;;;;;12.40;7.63;;;-0.30;99.90;;;-1.31;100.00;98719.44;5022705;28;20441;-36
2024/01/28 08:03:56;;;;;;;12.32;7.40;;;-0.30;99.90;;;-1.25;100.00;98718.75;5030782;28;20412;-36
2024/01/28 08:06:22;;;;;;;13.75;6.95;;;-0.20;99.90;;;-1.19;100.00;98719.78;5024494;28;20033;-36
2024/01/28 08:08:48;;;;;;;13.60;7.45;;;-0.20;99.90;;;-1.14;100.00;98713.91;5031021;28;20043;-36
2024/01/28 08:11:14;;;;;;;12.40;7.20;;;-0.10;99.90;;;-1.10;100.00;98714.00;5018351;28;20043;-35
2024/01/28 08:13:40;;;;;;;13.90;7.32;;;-0.10;99.90;;;-1.02;100.00;98716.88;5026902;28;20091;-36
2024/01/28 08:16:06;;;;;;;13.98;7.72;;;0.00;99.90;;;-0.98;100.00;98714.38;5025170;28;20670;-35
2024/01/28 08:18:32;;;;;;;18.17;7.90;;;0.00;99.90;;;-1.00;100.00;98689.28;5028767;28;20032;-35
2024/01/28 08:20:58;;;;;;;14.45;7.80;;;0.10;99.90;;;-0.80;100.00;98719.22;5029334;28;20040;-37
2024/01/28 08:23:25;;;;;;;13.00;7.63;;;0.20;99.90;;;-0.77;100.00;98719.34;5022284;28;20037;-35
2024/01/28 08:25:55;;;;;;;13.10;7.43;;;0.30;99.90;;;-0.72;100.00;98711.69;5019693;28;20029;-35
2024/01/28 08:28:21;;;;;;;15.98;7.82;;;0.30;99.90;;;-0.64;100.00;98717.09;5028881;28;20408;-35
2024/01/28 08:30:48;;;;;;;14.65;8.00;;;0.30;99.90;;;-0.63;100.00;98711.97;5026838;28;20299;-35
2024/01/28 08:33:13;;;;;;;17.38;8.27;;;0.40;99.90;;;-0.53;100.00;98722.59;5040236;28;20040;-35
2024/01/28 08:35:39;;;;;;;16.17;8.32;;;0.50;99.90;;;-0.59;100.00;98687.88;5029241;28;20029;-35
2024/01/28 08:38:05;;;;;;;12.18;7.63;;;0.50;99.90;;;-0.43;100.00;98709.03;5024224;28;20550;-35
2024/01/28 08:40:31;;;;;;;13.43;7.55;;;0.60;99.90;;;-0.39;100.00;98709.16;5019709;28;20155;-35
2024/01/28 08:42:57;;;;;;;16.77;7.90;;;0.60;99.90;;;-0.43;100.00;98696.06;5025368;28;20039;-35
2024/01/28 08:45:23;;;;;;;12.77;8.20;;;0.70;99.90;;;-0.28;100.00;98719.84;5028325;28;20758;-35
2024/01/28 08:47:49;;;;;;;17.30;8.35;;;0.70;99.90;;;-0.27;100.00;98710.31;5025365;28;20120;-35
2024/01/28 08:50:15;;;;;;;16.88;9.18;;;0.80;99.90;;;-0.22;100.00;98719.97;5028574;28;20420;-36
2024/01/28 08:52:42;;;;;;;14.18;8.18;;;0.80;99.90;;;-0.30;100.00;98692.13;5031124;28;20029;-36
2024/01/28 08:55:09;;;;;;;17.98;8.68;;;0.80;99.90;;;-0.21;100.00;98689.78;5027097;28;20457;-36
2024/01/28 08:57:34;;;;;;;16.15;8.68;;;0.90;99.90;;;-0.08;100.00;98704.78;5019682;28;20335;-36
2024/01/28 09:00:01;;;;;;;16.10;8.32;;;0.90;99.90;;;-0.06;100.00;98697.94;5020045;28;20029;-35
2024/01/28 09:02:26;;;;;;;14.05;8.18;;;1.00;99.90;;;0.09;100.00;98706.94;5019304;28;20459;-36
2024/01/28 09:04:52;;;;;;;19.17;8.05;;;1.10;99.90;;;0.00;100.00;98689.47;5035263;28;20064;-35
2024/01/28 09:07:18;;;;;;;13.10;8.35;;;1.10;99.90;;;0.15;100.00;98714.91;5028933;28;20454;-35
2024/01/28 09:09:44;;;;;;;16.92;9.27;;;1.20;99.90;;;0.21;100.00;98720.22;5025201;28;20025;-36
2024/01/28 09:12:10;;;;;;;15.27;8.63;;;1.20;99.90;;;0.22;100.00;98721.13;5029064;28;20021;-36
2024/01/28 09:14:36;;;;;;;17.42;8.80;;;1.20;99.90;;;0.29;100.00;98734.28;5030179;28;20097;-36
2024/01/28 09:17:02;;;;;;;16.40;8.55;;;1.30;99.90;;;0.35;100.00;98728.38;5031389;28;20493;-36
2024/01/28 09:19:28;;;;;;;11.32;7.88;;;1.30;99.90;;;0.43;100.00;98729.47;5023814;28;20041;-36
2024/01/28 09:21:54;;;;;;;13.75;8.15;;;1.40;99.90;;;0.51;100.00;98729.63;5029288;28;20174;-36
2024/01/28 09:24:20;;;;;;;15.68;8.23;;;1.50;99.90;;;0.57;100.00;98730.66;5027507;28;20029;-36
2024/01/28 09:26:46;;;;;;;12.73;7.70;;;1.50;99.90;;;0.66;100.00;98723.91;5020317;28;20264;-36
2024/01/28 09:29:12;;;;;;;11.48;7.85;;;1.60;99.90;;;0.66;100.00;98718.72;5032644;28;20045;-36
2024/01/28 09:31:37;;;;;;;13.07;7.38;;;1.70;99.90;;;0.82;100.00;98730.34;5023853;28;20033;-36
2024/01/28 09:34:04;;;;;;;11.75;7.18;;;1.80;99.90;;;0.93;100.00;98727.19;5029562;28;20143;-36
2024/01/28 09:36:30;;;;;;;13.02;7.82;;;1.90;99.90;;;1.04;100.00;98721.31;5028730;28;20677;-36
2024/01/28 09:38:55;;;;;;;15.18;7.93;;;2.00;99.90;;;1.06;100.00;98722.22;5022769;28;20030;-36
2024/01/28 09:41:56;;;;;;;13.27;7.50;;;2.10;99.90;;;1.16;100.00;98729.38;5031848;28;20084;-36
2024/01/28 09:44:21;;;;;;;13.00;7.28;;;2.20;99.90;;;1.29;100.00;98731.44;5031661;28;20025;-36
2024/01/28 09:46:48;;;;;;;13.02;7.30;;;2.30;99.90;;;1.32;100.00;98722.78;5026562;28;20033;-36
2024/01/28 09:49:15;;;;;;;13.93;7.10;;;2.40;99.90;;;1.44;100.00;98732.59;5031537;28;20493;-36
2024/01/28 09:51:44;;;;;;;11.90;7.53;;;2.40;99.90;;;1.53;100.00;98743.19;5031240;28;20036;-36
2024/01/28 09:54:12;;;;;;;14.27;7.35;;;2.50;99.90;;;1.61;100.00;98728.59;5035128;28;20124;-36
2024/01/28 09:56:41;;;;;;;12.90;7.10;;;2.60;99.90;;;1.66;100.00;98729.56;5029861;28;20505;-36
2024/01/28 09:59:08;;;;;;;14.75;7.60;;;2.70;99.90;;;1.67;100.00;98710.53;5034274;28;20041;-36
2024/01/28 10:01:34;;;;;;;13.63;7.72;;;2.70;99.90;;;1.86;100.00;98732.53;5032112;28;20113;-36
2024/01/28 10:04:01;;;;;;;14.30;6.85;;;2.80;99.90;;;1.96;100.00;98735.34;5034260;28;20145;-36
2024/01/28 10:06:27;;;;;;;14.15;6.63;;;2.90;99.90;;;2.04;100.00;98729.41;5029334;28;20033;-36